createdAt,value
2017-09-25T00:11:46.530Z,13.25
2017-09-25T00:14:12.952Z,13.49
2017-09-25T00:16:39.510Z,13.56
2017-09-25T00:19:06.967Z,13.71
2017-09-25T00:21:33.513Z,13.71
2017-09-25T00:24:00.169Z,13.68
2017-09-25T00:26:28.312Z,13.60
2017-09-25T00:28:55.024Z,13.54
2017-09-25T00:31:21.615Z,13.62
2017-09-25T00:33:48.420Z,13.62
2017-09-25T00:36:15.044Z,13.50
2017-09-25T00:38:42.714Z,13.46
2017-09-25T00:41:09.193Z,13.49
2017-09-25T00:43:36.656Z,13.48
2017-09-25T00:46:04.196Z,13.43
2017-09-25T00:48:31.648Z,13.39
2017-09-25T00:50:58.080Z,13.27
2017-09-25T00:53:43.313Z,13.32
2017-09-25T00:56:09.956Z,13.26
2017-09-25T01:01:50.223Z,13.06
2017-09-25T01:07:30.379Z,13.12
2017-09-25T01:12:52.300Z,13.00
2017-09-25T01:15:27.951Z,12.99
2017-09-25T01:17:55.874Z,12.96
2017-09-25T01:20:22.519Z,12.89
2017-09-25T01:22:49.275Z,12.87
2017-09-25T01:25:15.880Z,12.83
2017-09-25T01:27:43.368Z,12.86
2017-09-25T01:30:11.041Z,12.88
2017-09-25T01:32:37.616Z,12.92
2017-09-25T01:35:05.640Z,12.97
2017-09-25T01:37:32.168Z,12.94
2017-09-25T01:39:58.888Z,12.76
2017-09-25T01:42:27.478Z,12.63
2017-09-25T01:47:52.510Z,12.76
2017-09-25T01:53:14.064Z,12.79
2017-09-25T01:55:40.664Z,12.72
2017-09-25T01:58:07.425Z,12.74
2017-09-25T02:00:34.032Z,12.67
2017-09-25T02:03:00.806Z,12.60
2017-09-25T02:05:42.956Z,12.40
2017-09-25T02:08:09.566Z,12.27
2017-09-25T02:10:36.056Z,12.29
2017-09-25T02:13:02.676Z,12.55
2017-09-25T02:15:29.266Z,12.62
2017-09-25T02:17:59.632Z,12.53
2017-09-25T02:20:26.686Z,12.55
2017-09-25T02:22:56.207Z,12.44
2017-09-25T02:25:23.107Z,12.33
2017-09-25T02:27:49.793Z,12.47
2017-09-25T02:30:16.373Z,12.39
2017-09-25T02:32:43.926Z,12.40
2017-09-25T02:35:10.662Z,12.39
2017-09-25T02:37:39.317Z,12.34
2017-09-25T02:40:05.913Z,12.28
2017-09-25T02:42:32.511Z,12.23
2017-09-25T02:45:02.839Z,12.22
2017-09-25T03:01:53.072Z,11.61
2017-09-25T03:04:19.544Z,11.64
2017-09-25T03:06:46.282Z,11.68
2017-09-25T03:09:12.988Z,11.80
2017-09-25T03:11:40.851Z,11.83
2017-09-25T03:14:07.465Z,11.91
2017-09-25T03:19:25.586Z,11.86
2017-09-25T03:21:56.144Z,11.84
2017-09-25T03:24:22.885Z,11.78
2017-09-25T03:26:50.297Z,11.68
2017-09-25T03:29:19.479Z,11.70
2017-09-25T03:31:46.120Z,11.75
2017-09-25T03:34:12.744Z,11.73
2017-09-25T03:36:41.481Z,11.69
2017-09-25T03:39:08.224Z,11.77
2017-09-25T03:41:35.816Z,11.61
2017-09-25T03:44:03.465Z,11.49
2017-09-25T03:46:31.091Z,11.65
2017-09-25T03:48:57.735Z,11.70
2017-09-25T03:51:25.419Z,11.76
2017-09-25T03:53:52.116Z,11.68
2017-09-25T03:56:18.604Z,11.62
2017-09-25T03:58:46.082Z,11.62
2017-09-25T04:04:06.223Z,11.61
2017-09-25T04:06:32.736Z,11.47
2017-09-25T04:09:01.340Z,11.54
2017-09-25T04:11:30.941Z,11.40
2017-09-25T04:14:00.424Z,11.36
2017-09-25T04:27:59.664Z,11.01
2017-09-25T04:30:26.108Z,11.02
2017-09-25T04:35:51.024Z,10.81
2017-09-25T04:53:58.544Z,10.22
2017-09-25T04:56:26.772Z,10.40
2017-09-25T04:58:53.138Z,10.35
2017-09-25T05:01:20.337Z,10.18
2017-09-25T05:03:46.985Z,10.10
2017-09-25T05:06:14.312Z,10.18
2017-09-25T05:08:41.032Z,10.14
2017-09-25T05:11:07.716Z,10.15
2017-09-25T05:13:34.330Z,10.22
2017-09-25T05:18:56.653Z,10.48
2017-09-25T05:21:24.190Z,10.34
2017-09-25T05:36:23.297Z,10.22
2017-09-25T05:46:35.229Z,10.43
2017-09-25T05:51:56.571Z,10.75
2017-09-25T05:54:26.212Z,10.90
2017-09-25T05:56:53.067Z,10.98
2017-09-25T05:59:19.913Z,11.13
2017-09-25T06:01:46.702Z,11.12
2017-09-25T06:04:14.153Z,11.05
2017-09-25T06:06:43.692Z,10.98
2017-09-25T06:09:10.562Z,11.10
2017-09-25T06:11:39.292Z,11.39
2017-09-25T06:14:05.874Z,11.51
2017-09-25T06:16:32.720Z,11.61
2017-09-25T06:18:59.580Z,11.79
2017-09-25T06:21:26.276Z,11.74
2017-09-25T06:23:52.879Z,11.75
2017-09-25T06:26:20.752Z,11.92
2017-09-25T06:28:47.448Z,12.15
2017-09-25T06:31:14.020Z,12.30
2017-09-25T06:33:41.664Z,12.38
2017-09-25T06:36:09.149Z,12.36
2017-09-25T06:38:36.851Z,12.21
2017-09-25T06:41:03.488Z,12.17
2017-09-25T06:43:30.987Z,11.94
2017-09-25T06:45:58.761Z,11.88
2017-09-25T07:01:48.243Z,11.59
2017-09-25T07:04:14.924Z,11.53
2017-09-25T07:06:42.949Z,11.66
2017-09-25T07:09:09.486Z,11.94
2017-09-25T07:11:38.083Z,11.95
2017-09-25T07:14:04.696Z,12.03
2017-09-25T07:55:33.030Z,13.67
2017-09-25T07:57:59.499Z,13.85
2017-09-25T08:00:27.080Z,13.97
2017-09-25T08:02:53.505Z,13.93
2017-09-25T08:05:20.658Z,13.98
2017-09-25T08:07:47.260Z,13.94
2017-09-25T08:10:13.800Z,14.00
2017-09-25T08:12:40.254Z,14.09
2017-09-25T08:18:16.853Z,14.33
2017-09-25T08:20:43.471Z,14.53
2017-09-25T08:23:10.153Z,14.62
2017-09-25T08:25:37.487Z,14.64
2017-09-25T08:28:04.051Z,14.72
2017-09-25T08:43:53.000Z,14.73
2017-09-25T08:46:20.647Z,14.78
2017-09-25T08:48:47.408Z,14.75
2017-09-25T08:51:14.640Z,14.78
2017-09-25T08:53:41.990Z,14.98
2017-09-25T08:56:08.396Z,15.11
2017-09-25T08:58:34.948Z,15.08
2017-09-25T09:01:01.526Z,15.14
2017-09-25T09:03:29.912Z,15.26
2017-09-25T09:05:57.446Z,15.19
2017-09-25T09:08:43.524Z,15.24
2017-09-25T09:11:10.053Z,15.25
2017-09-25T09:13:36.579Z,14.85
2017-09-25T09:29:24.994Z,15.43
2017-09-25T09:31:51.543Z,15.52
2017-09-25T09:34:18.081Z,15.76
2017-09-25T09:36:56.336Z,15.92
2017-09-25T09:39:22.800Z,15.98
2017-09-25T09:41:52.383Z,16.13
2017-09-25T09:44:18.991Z,15.85
2017-09-25T09:46:46.499Z,16.02
2017-09-25T09:49:13.512Z,15.94
2017-09-25T09:51:41.041Z,16.09
2017-09-25T09:54:07.619Z,16.35
2017-09-25T09:56:34.044Z,16.57
2017-09-25T09:59:01.670Z,16.82
2017-09-25T10:01:34.168Z,17.18
2017-09-25T10:44:13.276Z,16.94
2017-09-25T10:46:40.125Z,17.13
2017-09-25T10:49:06.696Z,17.27
2017-09-25T10:54:43.413Z,17.54
2017-09-25T10:59:50.014Z,17.63
2017-09-25T11:02:16.812Z,17.69
2017-09-25T11:04:43.613Z,17.78
2017-09-25T11:07:11.096Z,17.67
2017-09-25T11:09:37.559Z,17.48
2017-09-25T11:15:00.291Z,17.54
2017-09-25T11:17:58.779Z,17.70
2017-09-25T11:56:46.900Z,17.75
2017-09-25T11:59:13.407Z,17.84
2017-09-25T12:01:39.981Z,17.98
2017-09-25T12:04:06.492Z,18.17
2017-09-25T12:06:33.068Z,18.20
2017-09-25T12:08:59.597Z,18.27
2017-09-25T12:11:27.949Z,18.33
2017-09-25T12:13:54.559Z,18.35
2017-09-25T12:16:21.015Z,18.49
2017-09-25T12:18:47.576Z,18.62
2017-09-25T12:21:30.340Z,18.73
2017-09-25T12:23:57.033Z,18.80
2017-09-25T12:26:25.369Z,18.82
2017-09-25T12:28:52.389Z,18.84
2017-09-25T12:31:21.815Z,18.62
2017-09-25T12:33:58.329Z,18.49
2017-09-25T12:36:25.584Z,18.56
2017-09-25T12:38:53.100Z,18.70
2017-09-25T12:41:22.439Z,18.86
2017-09-25T12:43:49.132Z,18.93
2017-09-25T12:46:16.760Z,18.92
2017-09-25T12:48:44.413Z,18.96
2017-09-25T13:30:13.440Z,18.53
2017-09-25T13:32:39.975Z,18.73
2017-09-25T13:35:06.397Z,18.93
2017-09-25T13:40:34.177Z,19.01
2017-09-25T13:43:02.388Z,19.02
2017-09-25T13:45:30.611Z,19.12
2017-09-25T13:48:00.427Z,19.21
2017-09-25T13:50:27.023Z,19.35
2017-09-25T13:52:53.685Z,19.40
2017-09-25T13:55:20.300Z,19.39
2017-09-25T13:57:47.104Z,19.38
2017-09-25T14:02:46.459Z,19.60
2017-09-25T14:05:24.392Z,19.60
2017-09-25T14:07:51.854Z,19.68
2017-09-25T14:10:18.561Z,19.75
2017-09-25T14:12:45.644Z,19.82
2017-09-25T14:15:12.240Z,19.77
2017-09-25T14:17:42.222Z,19.86
2017-09-25T14:20:09.624Z,19.89
2017-09-25T14:22:36.100Z,19.85
2017-09-25T14:25:03.572Z,19.96
2017-09-25T14:27:30.093Z,19.95
2017-09-25T14:29:58.500Z,20.02
2017-09-25T14:32:31.571Z,19.96
2017-09-25T14:34:59.709Z,19.88
2017-09-25T14:37:29.485Z,19.91
2017-09-25T14:39:56.684Z,20.02
2017-09-25T14:42:24.092Z,19.99
2017-09-25T14:44:50.639Z,19.94
2017-09-25T14:47:18.396Z,19.94
2017-09-25T14:49:44.876Z,19.92
2017-09-25T14:52:13.038Z,19.93
2017-09-25T14:57:50.495Z,20.00
2017-09-25T15:06:05.780Z,19.83
2017-09-25T15:11:06.614Z,19.81
2017-09-25T15:13:33.411Z,19.78
2017-09-25T15:16:00.558Z,19.83
2017-09-25T15:21:21.079Z,19.94
2017-09-25T15:23:47.852Z,19.88
2017-09-25T15:29:08.239Z,19.69
2017-09-25T15:31:37.799Z,19.61
2017-09-25T15:34:05.320Z,19.78
2017-09-25T15:36:31.843Z,19.75
2017-09-25T15:38:58.969Z,19.78
2017-09-25T15:41:25.565Z,19.83
2017-09-25T15:43:54.911Z,19.71
2017-09-25T16:11:03.309Z,19.02
2017-09-25T16:13:40.235Z,18.87
2017-09-25T16:16:06.808Z,18.72
2017-09-25T16:18:33.443Z,18.52
2017-09-25T16:21:00.187Z,18.36
2017-09-25T16:23:26.743Z,18.47
2017-09-25T16:25:53.259Z,18.53
2017-09-25T16:28:19.835Z,18.32
2017-09-25T16:30:46.323Z,18.38
2017-09-25T16:44:40.704Z,17.68
2017-09-25T16:47:11.092Z,17.43
2017-09-25T16:49:38.249Z,17.60
2017-09-25T16:52:05.016Z,17.45
2017-09-25T16:54:34.972Z,17.46
2017-09-25T16:57:02.545Z,17.47
2017-09-25T16:59:30.232Z,17.45
2017-09-25T17:01:57.141Z,17.75
2017-09-25T17:04:24.720Z,17.83
2017-09-25T17:06:53.455Z,17.77
2017-09-25T17:12:15.240Z,17.16
2017-09-25T17:14:41.891Z,16.92
2017-09-25T17:17:11.692Z,16.93
2017-09-25T17:55:26.953Z,15.71
2017-09-25T17:57:53.815Z,15.76
2017-09-25T18:00:20.663Z,15.78
2017-09-25T18:02:49.229Z,15.84
2017-09-25T18:05:27.048Z,15.79
2017-09-25T18:07:53.935Z,15.92
2017-09-25T18:10:22.675Z,15.91
2017-09-25T18:12:51.612Z,15.65
2017-09-25T18:15:19.131Z,15.93
2017-09-25T18:17:45.719Z,15.88
2017-09-25T18:20:12.200Z,15.87
2017-09-25T18:22:39.487Z,15.86
2017-09-25T18:25:07.599Z,15.72
2017-09-25T18:27:44.367Z,15.93
2017-09-25T18:30:11.240Z,16.02
2017-09-25T18:32:37.727Z,15.72
2017-09-25T18:35:06.516Z,15.47
2017-09-25T18:37:33.799Z,15.38
2017-09-25T18:40:01.277Z,15.46
2017-09-25T18:42:27.971Z,15.47
2017-09-25T18:44:54.513Z,15.45
2017-09-25T18:47:21.015Z,15.60
2017-09-25T18:49:47.638Z,15.56
2017-09-25T18:55:10.492Z,15.49
2017-09-25T18:57:37.285Z,15.68
2017-09-25T19:00:03.852Z,15.72
2017-09-25T19:02:32.465Z,15.65
2017-09-25T19:05:00.026Z,15.53
2017-09-25T19:07:26.903Z,15.26
2017-09-25T19:09:54.540Z,15.04
2017-09-25T19:12:22.075Z,14.95
2017-09-25T19:26:21.149Z,14.94
2017-09-25T19:28:47.905Z,14.95
2017-09-25T19:31:15.548Z,14.81
2017-09-25T19:33:42.147Z,14.65
2017-09-25T19:36:08.646Z,14.71
2017-09-25T20:16:02.984Z,14.32
2017-09-25T20:18:30.720Z,14.30
2017-09-25T20:20:58.391Z,14.27
2017-09-25T20:23:25.671Z,14.19
2017-09-25T20:25:52.215Z,14.45
2017-09-25T20:28:18.781Z,14.37
2017-09-25T20:30:45.434Z,14.26
2017-09-25T20:33:13.132Z,14.18
2017-09-25T20:35:40.967Z,14.20
2017-09-25T20:38:17.807Z,14.49
2017-09-25T20:40:45.424Z,14.54
2017-09-25T20:43:14.101Z,14.28
2017-09-25T20:45:41.388Z,14.17
2017-09-25T20:48:08.280Z,14.15
2017-09-25T20:50:37.964Z,14.21
2017-09-25T20:53:07.804Z,14.31
2017-09-25T20:55:34.356Z,14.56
2017-09-25T20:58:01.823Z,14.64
2017-09-25T21:00:29.403Z,14.76
2017-09-25T21:46:23.063Z,13.29
2017-09-25T21:48:50.000Z,13.35
2017-09-25T21:51:16.812Z,13.61
2017-09-25T21:53:44.203Z,13.83
2017-09-25T21:56:10.688Z,14.00
2017-09-25T21:58:37.250Z,14.00
2017-09-25T22:01:03.731Z,14.11
2017-09-25T22:03:32.364Z,14.21
2017-09-25T22:05:59.102Z,14.13
2017-09-25T22:08:26.492Z,14.10
2017-09-25T22:10:52.994Z,14.07
2017-09-25T22:13:21.548Z,14.03
2017-09-25T22:18:43.508Z,13.92
2017-09-25T22:21:10.240Z,14.05
2017-09-25T22:23:37.023Z,13.99
2017-09-25T22:26:03.595Z,14.01
2017-09-25T22:28:30.035Z,13.94
2017-09-25T22:30:57.599Z,13.98
2017-09-25T22:33:24.432Z,13.85
2017-09-25T22:35:50.895Z,13.92
2017-09-25T22:38:17.512Z,13.97
2017-09-25T22:40:44.958Z,13.89
2017-09-25T22:46:23.562Z,14.21
2017-09-25T22:48:50.315Z,14.27
2017-09-25T22:51:16.899Z,14.22
2017-09-25T22:53:44.941Z,14.21
2017-09-25T22:56:11.401Z,14.05
2017-09-25T22:58:38.067Z,13.91
2017-09-25T23:01:04.924Z,13.91
2017-09-25T23:15:51.408Z,13.31
2017-09-25T23:18:18.098Z,13.23
2017-09-25T23:20:44.747Z,13.14
2017-09-25T23:23:11.452Z,13.15
2017-09-25T23:25:38.124Z,13.28
2017-09-25T23:28:05.657Z,13.36
2017-09-25T23:30:36.161Z,13.39
2017-09-25T23:33:06.192Z,13.39
2017-09-25T23:35:32.894Z,13.33
2017-09-25T23:37:59.675Z,13.28
2017-09-25T23:40:26.862Z,13.27
2017-09-25T23:42:53.483Z,13.28
2017-09-25T23:45:21.218Z,13.52
2017-09-25T23:47:47.753Z,13.59
2017-09-25T23:50:14.243Z,13.41
2017-09-25T23:52:43.015Z,13.41
2017-09-25T23:55:10.538Z,13.54
2017-09-25T23:57:37.205Z,13.45
